createdAt,value
2022-12-18T00:00:30.864Z,101984.91
2022-12-18T00:02:59.462Z,101974.94
2022-12-18T00:05:30.423Z,101980.69
2022-12-18T00:07:59.364Z,101985.13
2022-12-18T00:10:29.748Z,101999.03
2022-12-18T00:13:03.801Z,102005.00
2022-12-18T00:15:37.235Z,102003.25
2022-12-18T00:18:12.944Z,101999.75
2022-12-18T00:20:43.741Z,102003.72
2022-12-18T00:23:12.840Z,102002.38
2022-12-18T00:25:41.412Z,102005.13
2022-12-18T00:28:12.886Z,102009.31
2022-12-18T00:30:42.211Z,102014.94
2022-12-18T00:33:11.957Z,102001.59
2022-12-18T00:35:41.178Z,102009.69
2022-12-18T00:38:10.068Z,102008.16
2022-12-18T00:40:41.993Z,102007.13
2022-12-18T00:43:12.098Z,102012.28
2022-12-18T00:45:41.692Z,102011.31
2022-12-18T00:48:10.592Z,102009.47
2022-12-18T00:50:39.720Z,102022.09
2022-12-18T00:53:08.713Z,102015.47
2022-12-18T00:55:37.448Z,102035.63
2022-12-18T00:58:06.171Z,102023.78
2022-12-18T01:00:37.042Z,102034.09
2022-12-18T01:03:06.693Z,102025.91
2022-12-18T01:05:36.302Z,102031.50
2022-12-18T01:08:05.522Z,102036.19
2022-12-18T01:10:34.332Z,102041.06
2022-12-18T01:13:05.805Z,102042.34
2022-12-18T01:15:37.003Z,102044.44
2022-12-18T01:18:05.912Z,102038.66
2022-12-18T01:20:34.971Z,102041.13
2022-12-18T01:23:03.817Z,102036.28
2022-12-18T01:25:32.299Z,102051.22
2022-12-18T01:28:02.285Z,102047.94
2022-12-18T01:30:31.836Z,102061.28
2022-12-18T01:33:03.065Z,102057.66
2022-12-18T01:35:32.090Z,102062.13
2022-12-18T01:38:01.262Z,102055.13
2022-12-18T01:40:30.855Z,102060.25
2022-12-18T01:42:59.670Z,102057.03
2022-12-18T01:45:30.858Z,102061.53
2022-12-18T01:48:04.339Z,102054.66
2022-12-18T01:50:36.428Z,102056.44
2022-12-18T01:53:09.271Z,102059.38
2022-12-18T01:55:41.412Z,102050.03
2022-12-18T01:58:10.105Z,102052.50
2022-12-18T02:00:39.674Z,102063.72
2022-12-18T02:03:11.515Z,102063.72
2022-12-18T02:05:49.111Z,102062.22
2022-12-18T02:08:24.330Z,102051.53
2022-12-18T02:11:06.494Z,102057.72
2022-12-18T02:13:43.973Z,102055.59
2022-12-18T02:16:21.686Z,102053.16
2022-12-18T02:19:00.872Z,102037.88
2022-12-18T02:21:39.437Z,102032.53
2022-12-18T02:24:27.231Z,102048.50
2022-12-18T02:27:01.316Z,102057.09
2022-12-18T02:29:36.144Z,102059.56
2022-12-18T02:32:08.998Z,102054.09
2022-12-18T02:34:42.602Z,102053.69
2022-12-18T02:37:19.511Z,102050.59
2022-12-18T02:39:52.120Z,102048.50
2022-12-18T02:42:24.870Z,102055.81
2022-12-18T02:44:55.204Z,102061.84
2022-12-18T02:47:30.565Z,102053.38
2022-12-18T02:50:05.788Z,102043.53
2022-12-18T02:52:42.070Z,102059.06
2022-12-18T02:55:28.360Z,102059.66
2022-12-18T02:58:08.152Z,102056.09
2022-12-18T03:00:45.469Z,102055.66
2022-12-18T03:03:19.594Z,102060.31
2022-12-18T03:05:53.192Z,102065.47
2022-12-18T03:08:25.856Z,102053.44
2022-12-18T03:11:04.258Z,102048.66
2022-12-18T03:13:42.104Z,102051.88
2022-12-18T03:16:18.067Z,102046.34
2022-12-18T03:18:50.828Z,102049.75
2022-12-18T03:21:23.844Z,102051.34
2022-12-18T03:23:55.940Z,102062.41
2022-12-18T03:26:32.173Z,102053.72
2022-12-18T03:29:12.475Z,102054.72
2022-12-18T03:31:50.261Z,102053.69
2022-12-18T03:34:25.760Z,102044.53
2022-12-18T03:36:56.393Z,102051.00
2022-12-18T03:39:26.929Z,102045.38
2022-12-18T03:42:05.956Z,102041.19
2022-12-18T03:44:47.027Z,102035.25
2022-12-18T03:47:20.373Z,102042.09
2022-12-18T03:49:53.029Z,102051.38
2022-12-18T03:52:30.706Z,102043.66
2022-12-18T03:55:03.649Z,102044.66
2022-12-18T03:57:35.382Z,102047.38
2022-12-18T04:00:11.792Z,102038.22
2022-12-18T04:02:56.590Z,102046.97
2022-12-18T04:05:35.160Z,102047.34
2022-12-18T04:08:05.803Z,102040.91
2022-12-18T04:10:38.904Z,102035.91
2022-12-18T04:13:08.005Z,102030.06
2022-12-18T04:15:41.496Z,102030.22
2022-12-18T04:18:15.389Z,102031.72
2022-12-18T04:20:45.751Z,102024.78
2022-12-18T04:23:14.806Z,102033.88
2022-12-18T04:25:44.049Z,102037.00
2022-12-18T04:28:18.481Z,102040.50
2022-12-18T04:30:50.085Z,102044.25
2022-12-18T04:33:18.941Z,102046.63
2022-12-18T04:35:47.808Z,102052.38
2022-12-18T04:38:16.905Z,102046.19
2022-12-18T04:40:46.908Z,102054.56
2022-12-18T04:43:23.480Z,102066.47
2022-12-18T04:45:54.887Z,102060.09
2022-12-18T04:48:25.415Z,102059.78
2022-12-18T04:50:55.682Z,102057.25
2022-12-18T04:53:26.255Z,102056.81
2022-12-18T04:56:05.994Z,102053.31
2022-12-18T04:58:34.852Z,102059.72
2022-12-18T05:01:06.264Z,102053.00
2022-12-18T05:03:35.138Z,102046.19
2022-12-18T05:06:04.254Z,102051.56
2022-12-18T05:08:32.822Z,102040.81
2022-12-18T05:11:03.050Z,102035.91
2022-12-18T05:13:32.976Z,102036.31
2022-12-18T05:16:01.884Z,102024.53
2022-12-18T05:18:33.520Z,102026.84
2022-12-18T05:21:02.774Z,102022.47
2022-12-18T05:23:32.750Z,102034.41
2022-12-18T05:26:03.793Z,102044.25
2022-12-18T05:28:36.168Z,102040.91
2022-12-18T05:31:06.431Z,102050.31
2022-12-18T05:33:38.693Z,102039.13
2022-12-18T05:36:10.494Z,102038.84
2022-12-18T05:38:41.391Z,102044.53
2022-12-18T05:41:11.633Z,102035.94
2022-12-18T05:43:43.115Z,102040.47
2022-12-18T05:46:15.899Z,102046.03
2022-12-18T05:48:48.624Z,102044.81
2022-12-18T05:51:19.566Z,102045.19
2022-12-18T05:53:48.852Z,102044.97
2022-12-18T05:56:20.797Z,102047.88
2022-12-18T05:58:50.058Z,102046.47
2022-12-18T06:01:21.379Z,102067.13
2022-12-18T06:03:52.560Z,102072.16
2022-12-18T06:06:24.865Z,102074.31
2022-12-18T06:08:55.043Z,102077.41
2022-12-18T06:11:26.959Z,102082.09
2022-12-18T06:13:59.053Z,102079.69
2022-12-18T06:16:29.233Z,102094.03
2022-12-18T06:19:01.894Z,102096.94
2022-12-18T06:21:32.022Z,102097.00
2022-12-18T06:24:03.392Z,102098.91
2022-12-18T06:26:32.460Z,102095.38
2022-12-18T06:29:01.686Z,102100.75
2022-12-18T06:31:30.701Z,102108.97
2022-12-18T06:34:01.777Z,102109.91
2022-12-18T06:36:31.035Z,102104.06
2022-12-18T06:39:00.185Z,102106.56
2022-12-18T06:41:29.337Z,102107.78
2022-12-18T06:43:59.929Z,102108.59
2022-12-18T06:46:29.604Z,102101.81
2022-12-18T06:48:58.566Z,102102.84
2022-12-18T06:51:29.761Z,102089.25
2022-12-18T06:53:58.959Z,102092.16
2022-12-18T06:56:28.490Z,102107.59
2022-12-18T06:58:57.591Z,102108.88
2022-12-18T07:01:27.010Z,102107.25
2022-12-18T07:03:56.702Z,102119.44
2022-12-18T07:06:29.743Z,102116.94
2022-12-18T07:08:58.641Z,102107.00
2022-12-18T07:11:27.563Z,102109.47
2022-12-18T07:14:04.115Z,102109.69
2022-12-18T07:16:33.094Z,102111.13
2022-12-18T07:19:01.693Z,102108.22
2022-12-18T07:21:34.145Z,102111.56
2022-12-18T07:24:03.232Z,102120.66
2022-12-18T07:26:33.275Z,102118.66
2022-12-18T07:29:04.426Z,102133.06
2022-12-18T07:31:33.399Z,102143.97
2022-12-18T07:34:04.974Z,102146.72
2022-12-18T07:36:36.516Z,102168.09
2022-12-18T07:39:05.543Z,102167.88
2022-12-18T07:41:34.344Z,102170.41
2022-12-18T07:44:12.642Z,102166.44
2022-12-18T07:46:48.057Z,102172.00
2022-12-18T07:49:29.048Z,102144.59
2022-12-18T07:52:25.580Z,102166.38
2022-12-18T07:55:08.602Z,102129.56
2022-12-18T07:58:05.325Z,102181.22
2022-12-18T08:00:34.475Z,102193.09
2022-12-18T08:03:03.861Z,102187.63
2022-12-18T08:05:33.963Z,102193.19
2022-12-18T08:08:14.397Z,102190.41
2022-12-18T08:11:05.171Z,102185.41
2022-12-18T08:13:39.181Z,102159.19
2022-12-18T08:16:12.384Z,102175.28
2022-12-18T08:18:41.558Z,102174.13
2022-12-18T08:21:12.127Z,102171.75
2022-12-18T08:23:44.068Z,102162.69
2022-12-18T08:26:14.589Z,102159.47
2022-12-18T08:28:44.278Z,102147.44
2022-12-18T08:31:14.081Z,102149.81
2022-12-18T08:33:44.325Z,102145.78
2022-12-18T08:36:13.879Z,102132.97
2022-12-18T08:38:44.646Z,102134.03
2022-12-18T08:41:15.218Z,102130.91
2022-12-18T08:43:57.197Z,102134.50
2022-12-18T08:46:28.675Z,102132.28
2022-12-18T08:48:58.496Z,102119.19
2022-12-18T08:51:27.030Z,102116.13
2022-12-18T08:53:58.300Z,102116.13
2022-12-18T08:56:27.443Z,102112.31
2022-12-18T08:58:57.013Z,102120.38
2022-12-18T09:01:26.691Z,102121.19
2022-12-18T09:03:55.990Z,102126.06
2022-12-18T09:06:27.236Z,102118.03
2022-12-18T09:08:58.340Z,102108.97
2022-12-18T09:11:29.757Z,102111.31
2022-12-18T09:14:00.913Z,102112.25
2022-12-18T09:16:32.839Z,102095.75
2022-12-18T09:19:02.659Z,102102.97
2022-12-18T09:21:35.908Z,102094.13
2022-12-18T09:24:09.591Z,102098.47
2022-12-18T09:26:38.614Z,102086.59
2022-12-18T09:29:09.625Z,102086.34
2022-12-18T09:31:44.312Z,102073.19
2022-12-18T09:34:13.416Z,102069.66
2022-12-18T09:36:42.448Z,102069.97
2022-12-18T09:39:15.084Z,102068.31
2022-12-18T09:41:50.723Z,102072.69
2022-12-18T09:44:27.696Z,102074.84
2022-12-18T09:47:07.514Z,102069.66
2022-12-18T09:49:41.592Z,102062.59
2022-12-18T09:52:15.502Z,102057.38
2022-12-18T09:54:49.552Z,102063.47
2022-12-18T09:57:22.078Z,102052.69
2022-12-18T09:59:56.089Z,102047.47
2022-12-18T10:02:27.027Z,102048.91
2022-12-18T10:05:06.794Z,102052.75
2022-12-18T10:07:45.574Z,102063.34
2022-12-18T10:10:29.604Z,102064.25
2022-12-18T10:13:09.442Z,102070.19
2022-12-18T10:15:47.019Z,102072.59
2022-12-18T10:18:29.035Z,102060.78
2022-12-18T10:21:02.098Z,102074.94
2022-12-18T10:23:46.388Z,102070.72
2022-12-18T10:26:20.232Z,102073.78
2022-12-18T10:28:52.479Z,102078.91
2022-12-18T10:31:27.458Z,102096.34
2022-12-18T10:33:59.835Z,102098.41
2022-12-18T10:36:29.325Z,102096.28
2022-12-18T10:39:20.153Z,102081.66
2022-12-18T10:41:52.206Z,102080.03
2022-12-18T10:44:23.250Z,102077.28
2022-12-18T10:46:56.756Z,102074.88
2022-12-18T10:49:29.674Z,102080.59
2022-12-18T10:52:10.799Z,102082.75
2022-12-18T10:54:41.472Z,102075.16
2022-12-18T10:57:39.222Z,102066.16
2022-12-18T11:00:32.858Z,102059.34
2022-12-18T11:03:04.369Z,102048.41
2022-12-18T11:05:37.303Z,102050.09
2022-12-18T11:08:06.563Z,102043.84
2022-12-18T11:10:41.321Z,102044.25
2022-12-18T11:13:31.424Z,102039.63
2022-12-18T11:16:01.020Z,102037.41
2022-12-18T11:18:32.630Z,102031.09
2022-12-18T11:21:08.095Z,102032.69
2022-12-18T11:23:39.147Z,102023.47
2022-12-18T11:26:09.471Z,102027.13
2022-12-18T11:28:42.801Z,102008.31
2022-12-18T11:31:22.478Z,102009.00
2022-12-18T11:36:53.042Z,102006.25
2022-12-18T11:39:30.508Z,102008.06
2022-12-18T11:42:13.161Z,102008.13
2022-12-18T11:44:51.177Z,102015.78
2022-12-18T11:47:30.115Z,102022.88
2022-12-18T11:50:02.594Z,102027.25
2022-12-18T11:52:36.887Z,102034.63
2022-12-18T11:55:15.599Z,102033.56
2022-12-18T11:57:51.761Z,102018.03
2022-12-18T12:00:29.264Z,102004.66
2022-12-18T12:03:23.323Z,102021.66
2022-12-18T12:06:05.025Z,102009.59
2022-12-18T12:08:45.385Z,101993.59
2022-12-18T12:11:24.110Z,101991.53
2022-12-18T12:14:04.587Z,101991.28
2022-12-18T12:16:44.285Z,101973.13
2022-12-18T12:19:31.844Z,101976.56
2022-12-18T12:22:06.888Z,101980.44
2022-12-18T12:24:49.084Z,101972.25
2022-12-18T12:27:27.219Z,101947.97
2022-12-18T12:30:06.604Z,101963.25
2022-12-18T12:33:04.445Z,101948.78
2022-12-18T12:35:45.607Z,101939.66
2022-12-18T12:38:18.676Z,101926.34
2022-12-18T12:40:58.596Z,101933.81
2022-12-18T12:43:37.118Z,101937.75
2022-12-18T12:46:10.370Z,101932.69
2022-12-18T12:48:46.721Z,101923.16
2022-12-18T12:51:20.436Z,101945.09
2022-12-18T12:53:49.609Z,101933.38
2022-12-18T12:56:22.767Z,101931.41
2022-12-18T12:59:05.222Z,101930.72
2022-12-18T13:01:44.072Z,101916.69
2022-12-18T13:04:26.182Z,101913.16
2022-12-18T13:07:02.774Z,101909.94
2022-12-18T13:09:36.909Z,101909.38
2022-12-18T13:12:27.108Z,101908.56
2022-12-18T13:14:56.795Z,101912.38
2022-12-18T13:17:33.766Z,101902.88
2022-12-18T13:20:15.640Z,101889.06
2022-12-18T13:22:53.975Z,101888.00
2022-12-18T13:25:39.318Z,101865.69
2022-12-18T13:28:13.835Z,101882.59
2022-12-18T13:30:49.550Z,101891.31
2022-12-18T13:36:43.406Z,101906.22
2022-12-18T13:39:34.502Z,101894.56
2022-12-18T13:42:46.745Z,101883.63
2022-12-18T13:45:54.959Z,101895.81
2022-12-18T13:48:29.139Z,101897.13
2022-12-18T13:51:04.381Z,101897.63
2022-12-18T13:53:41.659Z,101901.38
2022-12-18T13:56:10.990Z,101906.50
2022-12-18T13:58:40.257Z,101906.16
2022-12-18T14:01:25.255Z,101906.44
2022-12-18T14:04:11.270Z,101896.84
2022-12-18T14:06:40.958Z,101893.75
2022-12-18T14:09:20.299Z,101890.00
2022-12-18T14:11:51.172Z,101892.97
2022-12-18T14:14:22.785Z,101898.88
2022-12-18T14:16:53.669Z,101902.66
2022-12-18T14:19:23.282Z,101901.44
2022-12-18T14:21:53.555Z,101898.72
2022-12-18T14:24:25.972Z,101894.88
2022-12-18T14:26:55.378Z,101894.56
2022-12-18T14:29:31.434Z,101882.94
2022-12-18T14:32:18.544Z,101893.53
2022-12-18T14:34:48.856Z,101899.72
2022-12-18T14:37:20.636Z,101879.81
2022-12-18T14:40:03.173Z,101876.81
2022-12-18T14:42:36.581Z,101867.47
2022-12-18T14:45:41.575Z,101898.28
2022-12-18T14:48:19.115Z,101878.88
2022-12-18T14:51:04.554Z,101876.13
2022-12-18T14:53:40.151Z,101881.25
2022-12-18T14:56:20.210Z,101858.78
2022-12-18T14:58:51.653Z,101870.63
2022-12-18T15:01:32.199Z,101871.88
2022-12-18T15:04:03.758Z,101866.13
2022-12-18T15:06:41.383Z,101855.53
2022-12-18T15:09:26.543Z,101864.38
2022-12-18T15:12:02.572Z,101851.31
2022-12-18T15:14:38.192Z,101847.53
2022-12-18T15:17:10.685Z,101842.94
2022-12-18T15:19:44.179Z,101841.00
2022-12-18T15:22:23.903Z,101843.25
2022-12-18T15:24:54.609Z,101834.31
2022-12-18T15:27:32.775Z,101812.97
2022-12-18T15:30:21.272Z,101816.28
2022-12-18T15:32:51.672Z,101809.53
2022-12-18T15:35:24.626Z,101804.09
2022-12-18T15:37:54.545Z,101811.69
2022-12-18T15:40:26.283Z,101819.03
2022-12-18T15:43:20.522Z,101819.03
2022-12-18T15:45:49.846Z,101801.41
2022-12-18T15:48:24.840Z,101816.44
2022-12-18T15:50:58.720Z,101816.09
2022-12-18T15:53:30.886Z,101813.94
2022-12-18T15:56:13.888Z,101829.75
2022-12-18T15:58:47.123Z,101820.00
2022-12-18T16:01:19.297Z,101814.34
2022-12-18T16:03:48.476Z,101804.84
2022-12-18T16:06:17.210Z,101798.84
2022-12-18T16:08:46.376Z,101797.19
2022-12-18T16:11:38.361Z,101797.72
2022-12-18T16:14:18.603Z,101774.44
2022-12-18T16:16:48.786Z,101769.75
2022-12-18T16:19:17.894Z,101764.03
2022-12-18T16:21:48.595Z,101778.06
2022-12-18T16:24:19.404Z,101766.75
2022-12-18T16:26:48.431Z,101765.63
2022-12-18T16:29:24.607Z,101769.94
2022-12-18T16:31:55.300Z,101766.75
2022-12-18T16:34:29.190Z,101759.41
2022-12-18T16:37:05.524Z,101755.56
2022-12-18T16:39:35.937Z,101763.22
2022-12-18T16:42:06.615Z,101757.19
2022-12-18T16:44:40.256Z,101760.22
2022-12-18T16:47:09.652Z,101754.75
2022-12-18T16:49:40.851Z,101768.34
2022-12-18T16:52:10.858Z,101747.19
2022-12-18T16:54:39.703Z,101746.69
2022-12-18T16:57:10.799Z,101736.66
2022-12-18T16:59:42.337Z,101751.53
2022-12-18T17:02:19.786Z,101731.78
2022-12-18T17:04:56.751Z,101739.59
2022-12-18T17:07:28.503Z,101746.13
2022-12-18T17:09:57.894Z,101761.53
2022-12-18T17:12:26.858Z,101743.13
2022-12-18T17:14:59.411Z,101737.72
2022-12-18T17:17:29.831Z,101736.91
2022-12-18T17:19:58.639Z,101725.00
2022-12-18T17:22:27.992Z,101724.44
2022-12-18T17:24:57.011Z,101705.50
2022-12-18T17:27:27.372Z,101718.00
2022-12-18T17:29:59.017Z,101724.53
2022-12-18T17:32:28.065Z,101712.31
2022-12-18T17:34:57.228Z,101718.34
2022-12-18T17:37:27.376Z,101711.88
2022-12-18T17:39:56.238Z,101700.53
2022-12-18T17:42:29.553Z,101702.75
2022-12-18T17:45:01.440Z,101712.22
2022-12-18T17:47:30.715Z,101706.66
2022-12-18T17:50:00.370Z,101696.41
2022-12-18T17:52:29.749Z,101702.13
2022-12-18T17:54:58.748Z,101690.25
2022-12-18T17:57:28.437Z,101698.16
2022-12-18T17:59:59.681Z,101700.03
2022-12-18T18:02:29.576Z,101690.59
2022-12-18T18:04:59.838Z,101684.88
2022-12-18T18:07:29.125Z,101686.00
2022-12-18T18:09:58.184Z,101680.09
2022-12-18T18:12:39.923Z,101673.56
2022-12-18T18:15:13.093Z,101649.44
2022-12-18T18:17:42.804Z,101667.63
2022-12-18T18:20:20.692Z,101679.28
2022-12-18T18:22:56.244Z,101675.44
2022-12-18T18:25:27.561Z,101656.47
2022-12-18T18:27:58.061Z,101664.94
2022-12-18T18:30:30.612Z,101658.13
2022-12-18T18:33:01.508Z,101641.31
2022-12-18T18:35:53.387Z,101641.59
2022-12-18T18:38:23.645Z,101637.53
2022-12-18T18:41:03.079Z,101632.09
2022-12-18T18:43:33.802Z,101639.06
2022-12-18T18:46:07.122Z,101630.16
2022-12-18T18:48:39.836Z,101636.38
2022-12-18T18:51:20.894Z,101645.91
2022-12-18T18:53:53.249Z,101657.22
2022-12-18T18:56:56.679Z,101635.00
2022-12-18T18:59:16.923Z,101642.59
2022-12-18T19:01:52.367Z,101641.00
2022-12-18T19:04:22.195Z,101638.84
2022-12-18T19:06:51.504Z,101639.66
2022-12-18T19:09:21.764Z,101647.47
2022-12-18T19:12:04.689Z,101641.56
2022-12-18T19:14:34.413Z,101633.41
2022-12-18T19:17:06.007Z,101632.88
2022-12-18T19:19:39.424Z,101621.22
2022-12-18T19:22:10.495Z,101603.38
2022-12-18T19:24:39.855Z,101607.41
2022-12-18T19:27:10.613Z,101630.16
2022-12-18T19:29:39.514Z,101616.63
2022-12-18T19:32:11.376Z,101625.59
2022-12-18T19:34:41.639Z,101627.50
2022-12-18T19:37:12.612Z,101620.50
2022-12-18T19:39:45.296Z,101617.81
2022-12-18T19:42:14.444Z,101598.56
2022-12-18T19:44:44.275Z,101627.03
2022-12-18T19:47:17.001Z,101607.59
2022-12-18T19:49:46.317Z,101593.47
2022-12-18T19:52:21.774Z,101574.53
2022-12-18T19:54:51.471Z,101597.06
2022-12-18T19:57:20.484Z,101598.44
2022-12-18T19:59:49.903Z,101555.88
2022-12-18T20:02:21.175Z,101558.88
2022-12-18T20:04:51.274Z,101575.72
2022-12-18T20:07:20.272Z,101577.88
2022-12-18T20:09:51.644Z,101542.66
2022-12-18T20:12:28.024Z,101541.28
2022-12-18T20:14:57.423Z,101545.94
2022-12-18T20:17:32.575Z,101549.72
2022-12-18T20:20:03.585Z,101540.53
2022-12-18T20:22:33.617Z,101528.34
2022-12-18T20:25:04.236Z,101535.13
2022-12-18T20:27:33.742Z,101540.00
2022-12-18T20:30:02.670Z,101538.91
2022-12-18T20:32:37.234Z,101533.50
2022-12-18T20:35:07.136Z,101538.94
2022-12-18T20:37:37.435Z,101527.28
2022-12-18T20:40:11.227Z,101537.88
2022-12-18T20:42:42.620Z,101540.56
2022-12-18T20:45:16.906Z,101548.97
2022-12-18T20:47:48.201Z,101547.59
2022-12-18T20:50:17.314Z,101541.91
2022-12-18T20:52:50.000Z,101539.47
2022-12-18T20:55:20.052Z,101530.25
2022-12-18T20:57:49.037Z,101524.00
2022-12-18T21:00:21.191Z,101512.91
2022-12-18T21:02:53.193Z,101512.38
2022-12-18T21:05:23.102Z,101504.78
2022-12-18T21:07:52.271Z,101509.38
2022-12-18T21:10:21.299Z,101504.25
2022-12-18T21:12:50.930Z,101503.97
2022-12-18T21:15:28.887Z,101514.81
2022-12-18T21:18:00.090Z,101509.38
2022-12-18T21:20:29.062Z,101518.88
2022-12-18T21:23:11.269Z,101520.22
2022-12-18T21:25:46.651Z,101524.00
2022-12-18T21:28:18.740Z,101527.28
2022-12-18T21:30:48.730Z,101516.44
2022-12-18T21:33:21.021Z,101480.09
2022-12-18T21:35:50.452Z,101508.31
2022-12-18T21:38:19.560Z,101503.69
2022-12-18T21:40:51.203Z,101511.84
2022-12-18T21:43:32.998Z,101508.03
2022-12-18T21:46:02.321Z,101511.28
2022-12-18T21:48:34.314Z,101502.06
2022-12-18T21:51:06.450Z,101488.50
2022-12-18T21:53:38.857Z,101507.22
2022-12-18T21:56:08.575Z,101497.47
2022-12-18T21:58:40.920Z,101501.50
2022-12-18T22:01:26.903Z,101495.00
2022-12-18T22:04:08.839Z,101494.19
2022-12-18T22:06:37.724Z,101482.81
2022-12-18T22:09:08.356Z,101470.31
2022-12-18T22:11:39.842Z,101463.53
2022-12-18T22:14:09.817Z,101471.97
2022-12-18T22:16:40.324Z,101465.97
2022-12-18T22:19:14.835Z,101449.72
2022-12-18T22:21:45.769Z,101467.88
2022-12-18T22:24:18.238Z,101447.81
2022-12-18T22:26:51.015Z,101451.34
2022-12-18T22:29:34.464Z,101448.88
2022-12-18T22:32:04.482Z,101447.25
2022-12-18T22:34:38.198Z,101439.69
2022-12-18T22:37:08.069Z,101434.78
2022-12-18T22:39:38.561Z,101441.56
2022-12-18T22:42:08.579Z,101427.19
2022-12-18T22:44:37.077Z,101442.88
2022-12-18T22:47:09.157Z,101430.69
2022-12-18T22:49:40.593Z,101420.66
2022-12-18T22:52:12.060Z,101422.28
2022-12-18T22:54:43.736Z,101423.63
2022-12-18T22:57:13.612Z,101411.97
2022-12-18T22:59:45.094Z,101408.16
2022-12-18T23:02:14.467Z,101400.84
2022-12-18T23:04:45.478Z,101385.41
2022-12-18T23:07:14.770Z,101381.03
2022-12-18T23:09:43.775Z,101382.66
2022-12-18T23:12:17.993Z,101394.03
2022-12-18T23:14:47.471Z,101383.16
2022-12-18T23:17:16.700Z,101377.72
2022-12-18T23:19:49.374Z,101365.00
2022-12-18T23:22:18.711Z,101373.97
2022-12-18T23:24:48.178Z,101366.63
2022-12-18T23:27:17.901Z,101359.28
2022-12-18T23:29:47.277Z,101343.00
2022-12-18T23:32:18.529Z,101335.97
2022-12-18T23:34:53.013Z,101344.63
2022-12-18T23:37:49.911Z,101351.63
2022-12-18T23:40:15.958Z,101364.91
2022-12-18T23:42:45.184Z,101356.47
2022-12-18T23:45:17.818Z,101359.47
2022-12-18T23:47:50.882Z,101354.59
2022-12-18T23:50:29.714Z,101361.38
2022-12-18T23:53:05.509Z,101358.66
2022-12-18T23:55:40.668Z,101354.03
2022-12-18T23:58:11.001Z,101337.22
